Terminal Aerodrome Forecast
Issued by NWS Newport/Morehead City, NC

Home | Current Version | Previous Version | Text Only | Print | Product List | Glossary Off
Versions: 1 2 3 4 5 6 7 8 9 10 11 12 13 14 15 16 17 18 19 20 21 22 23

000
FTUS42 KMHX 170600 AAA
TAFEWN
TAF AMD
KEWN 170636Z 1707/1806 00000KT P6SM SCT025 BKN035
     FM170800 00000KT P6SM OVC040
     FM171300 03005KT P6SM VCSH OVC050
     FM171900 07005KT P6SM VCSH BKN050=

USA.gov is the U.S. government's official web portal to all federal, state and local government web resources and services.